Time;durP1;ratioP1;P1;durP2;ratioP2;P2;SDS_P1;SDS_P2;PMS_P1;PMS_P2;Temp;Humidity;BMP_temperature;BMP_pressure;BME280_temperature;BME280_humidity;BME280_pressure;Samples;Min_cycle;Max_cycle;Signal;HPM_P1;HPM_P2
2022/08/11 00:01:19;;;;;;;4.77;4.47;;;;;;;24.80;73.45;99359.63;5073169;28;20687;-71
2022/08/11 00:03:53;;;;;;;4.83;4.53;;;;;;;24.74;73.76;99357.56;5073392;28;20659;-70
2022/08/11 00:06:25;;;;;;;5.17;4.87;;;;;;;24.74;74.21;99361.97;5073592;28;20249;-70
2022/08/11 00:08:54;;;;;;;5.00;4.70;;;;;;;24.68;74.05;99365.97;5073597;28;20691;-71
2022/08/11 00:11:31;;;;;;;5.57;5.30;;;;;;;24.61;74.33;99362.22;5072196;28;20219;-71
2022/08/11 00:13:59;;;;;;;4.87;4.67;;;;;;;24.47;75.93;99360.00;5073126;28;20670;-71
2022/08/11 00:16:27;;;;;;;5.10;4.80;;;;;;;24.37;76.35;99348.66;5072990;28;20633;-70
2022/08/11 00:18:57;;;;;;;5.17;4.80;;;;;;;24.24;76.91;99358.53;5073281;28;20243;-70
2022/08/11 00:21:25;;;;;;;6.23;5.40;;;;;;;24.11;77.63;99336.97;5073293;28;20192;-71
2022/08/11 00:23:56;;;;;;;5.07;4.87;;;;;;;24.22;78.05;99350.00;5073233;28;20196;-70
2022/08/11 00:26:26;;;;;;;5.00;4.70;;;;;;;24.18;78.56;99359.06;5072770;28;20263;-70
2022/08/11 00:28:53;;;;;;;5.90;5.60;;;;;;;24.09;79.69;99346.75;5073145;28;20212;-70
2022/08/11 00:31:24;;;;;;;5.83;5.53;;;;;;;24.03;81.01;99351.56;5073112;28;20200;-71
2022/08/11 00:33:52;;;;;;;6.23;5.50;;;;;;;24.05;81.26;99348.81;5073192;28;20205;-70
2022/08/11 00:36:21;;;;;;;5.97;5.67;;;;;;;24.07;82.10;99346.06;5072768;28;20219;-71
2022/08/11 00:38:52;;;;;;;5.50;5.20;;;;;;;24.11;81.74;99352.66;5072927;28;20207;-71
2022/08/11 00:41:32;;;;;;;5.50;5.20;;;;;;;24.15;81.99;99354.09;5072973;28;20208;-71
2022/08/11 00:44:24;;;;;;;6.23;5.93;;;;;;;24.10;82.36;99340.56;5072285;28;20203;-71
2022/08/11 00:47:02;;;;;;;5.70;5.40;;;;;;;24.12;82.49;99349.97;5070975;28;20207;-71
2022/08/11 00:49:43;;;;;;;5.57;5.17;;;;;;;24.02;82.83;99352.53;5072495;28;20687;-70
2022/08/11 00:52:23;;;;;;;8.00;6.13;;;;;;;23.90;83.11;99350.97;5072079;28;20211;-70
2022/08/11 00:55:29;;;;;;;6.23;5.93;;;;;;;23.89;83.79;99365.00;5072516;28;20211;-70
2022/08/11 00:58:37;;;;;;;5.67;5.00;;;;;;;23.70;84.75;99362.31;5072618;28;20291;-70
2022/08/11 01:01:10;;;;;;;7.23;5.80;;;;;;;23.55;85.35;99355.75;5070185;28;20565;-70
2022/08/11 01:04:07;;;;;;;6.43;5.93;;;;;;;23.43;86.26;99351.53;5070308;28;20588;-71
2022/08/11 01:06:52;;;;;;;6.03;5.63;;;;;;;23.33;86.81;99361.06;5038172;28;20196;-70
2022/08/11 01:09:45;;;;;;;6.97;6.27;;;;;;;23.16;87.48;99353.81;5071801;28;20216;-70
2022/08/11 01:12:49;;;;;;;6.07;5.77;;;;;;;23.10;87.76;99360.38;5072885;28;20556;-70
2022/08/11 01:15:56;;;;;;;6.60;6.10;;;;;;;23.04;88.57;99354.81;5072099;28;20224;-70
2022/08/11 01:18:57;;;;;;;6.93;6.53;;;;;;;22.97;88.88;99344.84;5072645;28;20631;-70
2022/08/11 01:22:29;;;;;;;6.57;6.07;;;;;;;22.98;88.53;99346.50;5065970;28;20221;-70
2022/08/11 01:25:37;;;;;;;7.47;6.97;;;;;;;23.01;87.81;99343.63;4988355;28;20613;-70
2022/08/11 01:28:39;;;;;;;6.87;6.40;;;;;;;23.00;87.27;99349.81;4988245;28;20221;-70
2022/08/11 01:31:42;;;;;;;6.70;6.20;;;;;;;23.05;87.35;99346.00;5067018;28;20203;-70
2022/08/11 01:35:15;;;;;;;6.50;6.10;;;;;;;23.13;86.41;99343.59;5068660;28;20195;-71
2022/08/11 01:38:12;;;;;;;6.53;6.00;;;;;;;23.18;85.04;99352.72;5067904;28;20196;-70
2022/08/11 01:41:21;;;;;;;5.53;5.23;;;;;;;23.12;84.60;99340.16;5072082;28;20199;-71
2022/08/11 01:47:49;;;;;;;6.20;5.90;;;;;;;23.08;84.46;99345.75;5071074;28;20207;-71
2022/08/11 01:50:14;;;;;;;6.73;6.33;;;;;;;23.07;84.82;99344.09;5070350;28;20212;-70
2022/08/11 01:52:58;;;;;;;6.20;5.70;;;;;;;23.06;84.85;99342.44;5069683;28;20204;-71
2022/08/11 01:55:34;;;;;;;6.63;5.27;;;;;;;23.08;84.47;99343.13;5071388;28;20191;-70
2022/08/11 01:58:08;;;;;;;6.90;6.40;;;;;;;23.05;84.67;99343.38;5071587;28;20203;-71
2022/08/11 02:00:48;;;;;;;6.47;5.93;;;;;;;23.07;84.24;99336.25;5070124;28;20663;-71
2022/08/11 02:03:22;;;;;;;6.47;5.97;;;;;;;23.12;83.97;99348.00;5070850;28;20200;-72
2022/08/11 02:06:53;;;;;;;6.70;6.10;;;;;;;23.17;83.39;99339.75;5071193;28;20192;-71
2022/08/11 02:08:59;;;;;;;6.33;5.73;;;;;;;23.16;83.78;99330.25;5069128;28;20232;-71
2022/08/11 02:11:30;;;;;;;6.23;5.73;;;;;;;23.23;83.56;99334.03;5070020;28;20192;-71
2022/08/11 02:14:02;;;;;;;6.20;5.70;;;;;;;23.26;83.08;99331.16;5071155;28;20207;-70
2022/08/11 02:16:52;;;;;;;6.33;5.70;;;;;;;23.30;83.01;99337.78;5071032;28;20584;-70
2022/08/11 02:25:09;;;;;;;10.70;6.27;;;;;;;23.29;83.35;99328.28;5070422;28;20203;-70
2022/08/11 02:27:43;;;;;;;6.67;6.23;;;;;;;23.31;83.23;99337.66;5071112;28;20204;-70
2022/08/11 02:30:14;;;;;;;6.37;5.97;;;;;;;23.36;83.01;99335.47;5071122;28;20591;-70
2022/08/11 02:35:44;;;;;;;6.10;5.77;;;;;;;23.40;82.61;99325.63;5070277;28;20207;-71
2022/08/11 02:38:21;;;;;;;5.53;5.23;;;;;;;23.41;82.80;99322.06;5070743;28;20215;-71
2022/08/11 02:42:21;;;;;;;5.07;4.87;;;;;;;23.42;82.50;99323.72;5070869;28;20286;-71
2022/08/11 02:44:08;;;;;;;5.27;4.90;;;;;;;23.43;81.88;99330.59;5071036;28;20227;-71
2022/08/11 02:46:47;;;;;;;5.13;4.87;;;;;;;23.43;81.95;99333.22;5066557;28;20200;-71
2022/08/11 02:52:27;;;;;;;5.80;5.27;;;;;;;23.43;81.89;99330.59;5070157;28;20237;-70
2022/08/11 02:55:13;;;;;;;5.23;4.93;;;;;;;23.40;82.04;99333.47;5070462;28;20572;-71
2022/08/11 02:57:43;;;;;;;5.43;5.13;;;;;;;23.41;81.57;99332.53;5070410;28;20196;-70
2022/08/11 03:00:13;;;;;;;6.70;6.13;;;;;;;23.42;81.87;99340.25;5069345;28;20210;-71
2022/08/11 03:03:05;;;;;;;6.00;5.50;;;;;;;23.42;81.82;99336.81;5069202;28;21092;-70
2022/08/11 03:05:53;;;;;;;5.10;4.83;;;;;;;23.39;81.74;99329.19;5070255;28;20664;-70
2022/08/11 03:08:32;;;;;;;5.27;5.07;;;;;;;23.34;81.86;99336.56;5066728;28;20231;-71
2022/08/11 03:17:03;;;;;;;5.60;5.10;;;;;;;23.29;82.22;99334.34;5068811;28;20211;-71
2022/08/11 03:19:42;;;;;;;5.43;5.13;;;;;;;23.30;81.68;99333.38;5070054;28;20194;-70
2022/08/11 03:22:17;;;;;;;5.40;4.97;;;;;;;23.30;81.87;99335.16;5070566;28;20200;-71
2022/08/11 03:24:57;;;;;;;5.73;5.33;;;;;;;23.21;81.99;99315.00;5068935;28;20286;-70
2022/08/11 03:27:36;;;;;;;5.67;5.27;;;;;;;23.30;81.94;99335.16;5070343;28;20544;-71
2022/08/11 03:30:11;;;;;;;5.53;4.83;;;;;;;23.24;82.07;99330.44;5072428;28;20219;-70
2022/08/11 03:35:54;;;;;;;6.27;5.77;;;;;;;23.25;82.07;99340.78;5073698;28;20206;-71
2022/08/11 03:38:26;;;;;;;5.50;5.20;;;;;;;23.24;82.09;99340.91;5074192;28;20207;-71
2022/08/11 03:44:04;;;;;;;5.03;4.70;;;;;;;23.30;81.72;99340.38;5058431;28;20568;-71
2022/08/11 03:46:55;;;;;;;5.77;5.20;;;;;;;23.29;81.87;99334.34;5071749;28;20204;-71
2022/08/11 03:49:35;;;;;;;5.37;5.07;;;;;;;23.33;81.93;99334.91;5073797;28;20219;-71
2022/08/11 03:52:13;;;;;;;6.20;5.63;;;;;;;23.37;82.35;99331.91;5073357;28;20222;-71
2022/08/11 03:54:51;;;;;;;11.63;5.17;;;;;;;23.44;81.90;99342.72;5073304;28;20199;-70
2022/08/11 03:58:03;;;;;;;4.87;4.63;;;;;;;23.50;81.35;99342.22;5072865;28;20587;-71
2022/08/11 04:01:13;;;;;;;4.90;4.70;;;;;;;23.53;81.67;99341.94;5073805;28;20643;-71
2022/08/11 04:04:34;;;;;;;7.27;5.00;;;;;;;23.56;81.04;99339.06;5058609;28;20583;-71
2022/08/11 04:07:45;;;;;;;4.37;4.07;;;;;;;23.57;79.45;99348.59;5072626;28;20235;-70
2022/08/11 04:10:46;;;;;;;4.20;4.00;;;;;;;23.52;79.48;99342.94;5066728;28;20703;-71
2022/08/11 04:13:51;;;;;;;4.37;4.10;;;;;;;23.52;80.42;99350.78;5072869;28;20207;-71
2022/08/11 04:16:43;;;;;;;5.00;4.50;;;;;;;23.51;80.02;99349.94;5071500;28;20203;-71
2022/08/11 04:19:52;;;;;;;5.10;4.80;;;;;;;23.52;79.86;99350.78;5068913;28;20200;-71
2022/08/11 04:22:45;;;;;;;6.50;4.80;;;;;;;23.52;79.76;99350.78;5062726;28;20208;-71
2022/08/11 04:25:35;;;;;;;4.90;4.60;;;;;;;23.53;80.46;99347.19;5073061;28;20200;-71
2022/08/11 04:28:43;;;;;;;5.30;4.90;;;;;;;23.52;80.35;99350.78;5071661;28;20211;-71
2022/08/11 04:31:36;;;;;;;5.43;4.97;;;;;;;23.50;81.04;99352.66;5052899;28;20239;-71
2022/08/11 04:34:41;;;;;;;5.10;4.90;;;;;;;23.49;79.96;99361.47;5069902;28;20235;-71
2022/08/11 04:37:36;;;;;;;7.47;4.43;;;;;;;23.49;81.41;99356.25;5040822;28;20269;-70
2022/08/11 04:40:44;;;;;;;4.97;4.40;;;;;;;23.52;81.61;99353.41;5068944;28;20207;-71
2022/08/11 04:43:47;;;;;;;4.57;4.37;;;;;;;23.56;80.73;99352.16;5054519;28;20196;-70
2022/08/11 04:47:04;;;;;;;4.57;4.37;;;;;;;23.61;80.96;99354.41;5061349;28;20223;-71
2022/08/11 05:03:04;;;;;;;5.83;5.47;;;;;;;23.65;85.46;99338.28;4958819;28;20211;-71
2022/08/11 05:05:52;;;;;;;5.23;4.87;;;;;;;23.68;84.35;99345.91;5028241;28;20268;-71
2022/08/11 05:09:09;;;;;;;4.50;4.30;;;;;;;23.68;84.24;99338.06;5070226;28;20223;-71
2022/08/11 05:12:01;;;;;;;4.90;4.70;;;;;;;23.77;84.07;99349.53;5027178;28;20225;-71
2022/08/11 05:37:11;;;;;;;5.20;4.90;;;;;;;23.94;80.83;99357.56;5068207;28;20769;-70
2022/08/11 05:56:31;;;;;;;4.53;4.13;;;;;;;25.90;74.50;99353.84;5068142;28;20278;-69
2022/08/11 05:58:58;;;;;;;4.63;4.43;;;;;;;26.00;73.25;99349.38;5067479;28;20204;-69
2022/08/11 06:01:29;;;;;;;5.83;5.47;;;;;;;26.11;71.98;99346.56;5068107;28;20561;-71
2022/08/11 06:04:16;;;;;;;4.73;4.53;;;;;;;26.10;71.38;99355.44;5069753;28;20866;-72
2022/08/11 06:06:51;;;;;;;4.90;4.50;;;;;;;26.09;72.25;99353.75;5068537;28;20672;-72
2022/08/11 06:09:23;;;;;;;5.43;5.13;;;;;;;26.29;76.04;99351.91;5069234;28;20230;-72
2022/08/11 06:11:51;;;;;;;4.80;4.40;;;;;;;26.56;71.40;99356.28;5066171;28;20199;-71
2022/08/11 06:14:19;;;;;;;4.53;4.33;;;;;;;26.71;72.65;99354.81;5067917;28;20245;-71
2022/08/11 06:16:50;;;;;;;4.87;4.67;;;;;;;26.91;72.44;99356.38;5070179;28;20197;-71
2022/08/11 06:19:21;;;;;;;4.60;4.30;;;;;;;27.12;71.53;99356.84;5069683;28;20196;-72
2022/08/11 06:21:51;;;;;;;4.93;4.53;;;;;;;27.42;70.47;99354.78;5068494;28;20228;-72
2022/08/11 06:24:19;;;;;;;6.53;4.20;;;;;;;27.76;66.70;99353.03;5068016;28;20291;-71
2022/08/11 06:26:52;;;;;;;5.00;4.50;;;;;;;28.01;67.61;99354.00;5067532;28;20208;-71
2022/08/11 06:29:19;;;;;;;4.63;4.23;;;;;;;28.25;64.63;99350.66;5062351;28;20306;-71
2022/08/11 06:31:55;;;;;;;4.37;4.17;;;;;;;28.51;64.62;99354.03;5065073;28;20284;-71
2022/08/11 06:34:37;;;;;;;5.03;4.60;;;;;;;28.58;64.72;99355.03;5062540;28;20672;-71
2022/08/11 06:37:18;;;;;;;4.37;4.17;;;;;;;28.70;65.19;99350.31;5067406;28;20203;-72
2022/08/11 06:39:51;;;;;;;5.13;4.73;;;;;;;28.83;61.66;99359.41;5065996;28;20285;-71
2022/08/11 06:42:44;;;;;;;5.00;4.70;;;;;;;29.13;62.84;99350.84;5065865;28;20728;-72
2022/08/11 06:45:24;;;;;;;4.50;4.30;;;;;;;29.42;61.03;99357.44;5067426;28;20579;-71
2022/08/11 06:47:53;;;;;;;4.47;4.27;;;;;;;29.60;58.63;99345.69;5065426;28;20264;-70
2022/08/11 06:53:10;;;;;;;4.57;4.38;;;;;;;29.71;59.55;99349.81;5062910;28;20793;-71
2022/08/11 07:01:20;;;;;;;4.47;4.18;;;;;;;30.26;58.38;99341.03;5067149;28;20298;-71
2022/08/11 07:03:56;;;;;;;4.97;4.57;;;;;;;30.46;59.53;99355.50;5068862;28;20222;-71
2022/08/11 07:06:37;;;;;;;5.55;4.70;;;;;;;30.74;57.86;99356.66;5064571;28;20217;-68
2022/08/11 07:29:11;;;;;;;4.22;4.03;;;;;;;31.99;53.48;99362.16;5066404;28;20238;-70
2022/08/11 07:31:43;;;;;;;4.47;4.28;;;;;;;32.02;51.34;99361.78;5067580;28;20215;-70
2022/08/11 07:34:20;;;;;;;4.30;4.10;;;;;;;32.07;52.37;99364.75;5067611;28;20218;-70
2022/08/11 07:36:52;;;;;;;4.45;4.25;;;;;;;32.13;50.25;99358.72;5066663;28;20196;-70
2022/08/11 07:39:22;;;;;;;4.55;4.22;;;;;;;32.30;51.17;99372.59;5068366;28;20196;-70
2022/08/11 07:41:51;;;;;;;9.93;4.55;;;;;;;32.49;52.43;99368.53;5065788;28;20200;-71
2022/08/11 07:44:19;;;;;;;4.93;4.53;;;;;;;32.73;47.71;99370.88;5067704;28;20230;-70
2022/08/11 07:52:32;;;;;;;5.18;4.78;;;;;;;32.98;46.24;99372.13;5070700;28;20682;-71
2022/08/11 07:55:01;;;;;;;4.35;4.13;;;;;;;33.17;46.79;99368.88;5070372;28;20231;-70
2022/08/11 08:19:32;;;;;;;4.40;4.20;;;;;;;33.45;46.47;99352.09;5073626;28;20250;-71
2022/08/11 08:22:00;;;;;;;4.40;4.20;;;;;;;33.58;46.48;99360.16;5073735;28;20188;-72
2022/08/11 08:24:28;;;;;;;4.15;3.95;;;;;;;33.55;45.55;99349.91;5073768;28;20196;-72
2022/08/11 08:26:59;;;;;;;4.20;3.85;;;;;;;33.74;46.75;99343.94;5073482;28;20204;-71
2022/08/11 08:32:15;;;;;;;3.75;3.58;;;;;;;34.08;44.02;99351.91;5072675;28;20218;-69
2022/08/11 08:34:43;;;;;;;4.32;3.97;;;;;;;34.00;43.54;99344.06;5073652;28;20290;-68
2022/08/11 08:37:10;;;;;;;4.32;4.07;;;;;;;34.03;43.42;99343.69;5073200;28;20200;-68
2022/08/11 08:39:39;;;;;;;4.32;3.92;;;;;;;34.17;43.13;99340.09;5073432;28;20683;-68
2022/08/11 08:42:11;;;;;;;3.30;3.20;;;;;;;34.01;41.64;99339.56;5072908;28;20683;-70
2022/08/11 08:44:42;;;;;;;3.90;3.78;;;;;;;34.02;41.35;99336.72;5072090;28;20203;-68
2022/08/11 08:47:14;;;;;;;4.50;4.13;;;;;;;34.06;41.37;99337.94;5071740;28;20703;-68
2022/08/11 08:49:48;;;;;;;4.03;3.83;;;;;;;34.09;41.22;99332.22;5073105;28;20220;-68
2022/08/11 08:52:18;;;;;;;3.67;3.47;;;;;;;34.43;42.15;99338.53;5072090;28;20219;-68
2022/08/11 08:54:53;;;;;;;3.78;3.58;;;;;;;34.51;40.06;99325.06;5068832;28;20580;-67
2022/08/11 08:57:23;;;;;;;4.45;4.05;;;;;;;34.70;39.91;99329.63;5071729;28;20229;-67
2022/08/11 08:59:51;;;;;;;4.13;3.92;;;;;;;34.70;39.21;99335.75;5069833;28;20204;-68
2022/08/11 09:02:20;;;;;;;4.35;3.70;;;;;;;34.54;38.68;99329.97;5070951;28;20192;-69
2022/08/11 09:04:47;;;;;;;3.90;3.70;;;;;;;34.16;39.17;99327.81;5072963;28;20218;-70
2022/08/11 09:07:18;;;;;;;3.88;3.58;;;;;;;33.76;40.88;99318.81;5072116;28;20224;-69
2022/08/11 09:09:49;;;;;;;3.80;3.60;;;;;;;33.25;40.77;99328.03;5070612;28;20223;-70
2022/08/11 09:12:18;;;;;;;4.55;4.15;;;;;;;32.81;42.52;99320.28;5068605;28;20216;-70
2022/08/11 09:15:02;;;;;;;3.90;3.60;;;;;;;32.66;43.55;99308.91;5070596;28;20196;-69
2022/08/11 09:17:31;;;;;;;4.65;4.15;;;;;;;32.82;42.90;99311.31;5067856;28;20655;-67
2022/08/11 09:20:04;;;;;;;4.22;4.03;;;;;;;33.10;43.07;99304.22;5066928;28;20286;-68
2022/08/11 09:28:06;;;;;;;3.83;3.53;;;;;;;32.99;40.88;99315.31;5069771;28;20217;-70
2022/08/11 09:30:33;;;;;;;3.63;3.35;;;;;;;33.04;41.72;99302.31;5066864;28;20208;-68
2022/08/11 09:33:04;;;;;;;6.70;4.40;;;;;;;33.18;40.09;99303.28;5068445;28;20207;-68
2022/08/11 09:35:35;;;;;;;4.28;3.60;;;;;;;33.33;39.83;99301.31;5060586;28;20691;-69
2022/08/11 09:40:51;;;;;;;4.30;3.97;;;;;;;33.68;37.92;99299.50;5067863;28;20199;-70
2022/08/11 09:46:06;;;;;;;3.63;3.42;;;;;;;33.66;40.42;99288.25;5065483;28;20215;-68
2022/08/11 09:48:38;;;;;;;3.20;3.03;;;;;;;33.82;38.37;99276.47;5066549;28;20592;-68
2022/08/11 09:51:07;;;;;;;3.83;3.53;;;;;;;34.18;38.44;99277.88;5070299;28;20226;-68
2022/08/11 09:53:37;;;;;;;3.15;3.05;;;;;;;34.34;38.19;99284.66;5069210;28;20219;-68
2022/08/11 09:58:55;;;;;;;3.20;3.08;;;;;;;34.49;37.49;99284.47;5062984;28;20404;-70
2022/08/11 10:01:27;;;;;;;3.65;3.55;;;;;;;34.66;36.50;99275.94;5070769;28;20728;-68
2022/08/11 10:03:59;;;;;;;3.20;3.10;;;;;;;34.72;37.32;99272.47;5063934;28;20209;-68
2022/08/11 10:09:16;;;;;;;3.53;3.33;;;;;;;34.63;37.95;99270.22;5069718;28;20207;-69
2022/08/11 10:11:45;;;;;;;3.80;3.60;;;;;;;34.07;37.71;99275.75;5067956;28;20216;-71
2022/08/11 10:16:58;;;;;;;3.42;3.22;;;;;;;33.83;37.32;99262.97;5068514;28;20222;-71
2022/08/11 10:19:26;;;;;;;2.97;2.88;;;;;;;33.37;37.73;99275.19;5063935;28;20204;-69
2022/08/11 10:27:30;;;;;;;2.70;2.60;;;;;;;33.28;38.44;99263.06;5068098;28;20250;-69
2022/08/11 10:35:27;;;;;;;2.92;2.80;;;;;;;33.64;42.17;99258.38;5068727;28;20211;-68
2022/08/11 10:37:55;;;;;;;2.85;2.70;;;;;;;33.72;37.97;99260.88;5069910;28;20200;-68
2022/08/11 10:40:23;;;;;;;2.80;2.70;;;;;;;33.94;36.61;99254.41;5070068;28;20204;-71
2022/08/11 10:43:05;;;;;;;3.30;3.20;;;;;;;34.00;39.21;99250.13;5069492;28;20573;-70
2022/08/11 10:48:21;;;;;;;3.22;2.70;;;;;;;34.03;37.37;99223.94;5070586;28;20257;-69
2022/08/11 10:59:08;;;;;;;2.85;2.75;;;;;;;33.30;39.25;99239.75;5070933;28;20253;-70
2022/08/11 11:01:44;;;;;;;3.03;2.88;;;;;;;33.25;39.01;99227.88;5070110;28;20624;-71
2022/08/11 11:04:14;;;;;;;3.20;3.00;;;;;;;33.10;37.86;99234.31;5069839;28;20200;-69
2022/08/11 11:06:50;;;;;;;2.47;2.38;;;;;;;32.83;37.69;99233.28;5070118;28;20204;-71
2022/08/11 11:09:22;;;;;;;4.55;2.80;;;;;;;32.82;37.73;99236.97;5048805;28;20196;-69
2022/08/11 11:20:30;;;;;;;2.25;2.15;;;;;;;33.69;36.65;99208.09;5049418;28;20231;-68
2022/08/11 11:23:03;;;;;;;2.47;2.38;;;;;;;33.80;37.68;99209.38;5049790;28;20288;-69
2022/08/11 11:26:05;;;;;;;2.28;2.17;;;;;;;33.92;36.22;99219.22;5048859;28;20204;-70
2022/08/11 11:28:46;;;;;;;2.70;2.60;;;;;;;33.81;35.38;99211.81;5049947;28;20204;-68
2022/08/11 11:31:32;;;;;;;2.80;2.70;;;;;;;33.69;35.39;99210.75;5049697;28;20303;-69
2022/08/11 11:34:17;;;;;;;2.67;2.58;;;;;;;33.42;36.11;99200.97;5049557;28;20220;-69
2022/08/11 11:36:49;;;;;;;2.75;2.55;;;;;;;33.58;36.78;99197.97;5050836;28;20204;-68
2022/08/11 11:39:19;;;;;;;2.78;2.58;;;;;;;33.67;37.06;99200.31;5049915;28;20656;-70
2022/08/11 11:41:46;;;;;;;2.80;2.60;;;;;;;33.57;36.98;99199.03;5047558;28;20193;-68
2022/08/11 11:44:15;;;;;;;2.45;2.35;;;;;;;33.66;34.56;99193.38;5044360;28;20212;-69
2022/08/11 11:46:45;;;;;;;2.60;2.50;;;;;;;33.92;34.82;99195.28;5050169;28;20668;-68
2022/08/11 11:49:14;;;;;;;2.15;2.05;;;;;;;34.19;34.46;99188.19;5049494;28;20193;-69
2022/08/11 11:51:43;;;;;;;2.50;2.40;;;;;;;34.28;34.53;99171.81;5050594;28;20212;-68
2022/08/11 11:54:10;;;;;;;2.30;2.20;;;;;;;34.35;36.90;99166.50;5052700;28;20203;-70
2022/08/11 11:56:38;;;;;;;2.70;2.15;;;;;;;34.61;34.64;99187.84;5054004;28;20189;-66
2022/08/11 12:01:51;;;;;;;3.15;2.42;;;;;;;34.81;36.38;99166.53;5054414;28;20564;-67
2022/08/11 12:04:20;;;;;;;2.67;2.58;;;;;;;34.40;35.59;99176.56;5054026;28;20200;-68
2022/08/11 12:06:47;;;;;;;4.55;4.20;;;;;;;34.21;36.15;99171.03;5054262;28;20200;-69
2022/08/11 12:09:17;;;;;;;2.80;2.70;;;;;;;34.33;34.62;99173.06;5052057;28;20201;-69
2022/08/11 12:14:30;;;;;;;2.45;2.25;;;;;;;33.48;34.75;99163.78;5056227;28;20338;-69
2022/08/11 12:16:59;;;;;;;2.38;2.28;;;;;;;32.90;34.96;99170.41;5052474;28;20201;-68
2022/08/11 12:19:28;;;;;;;2.38;2.28;;;;;;;32.95;35.06;99161.88;5050722;28;20550;-69
2022/08/11 12:27:27;;;;;;;2.20;2.10;;;;;;;33.19;35.37;99159.59;5053102;28;20318;-69
2022/08/11 12:29:57;;;;;;;2.33;2.22;;;;;;;33.34;36.01;99150.66;5052708;28;20201;-70
2022/08/11 12:32:30;;;;;;;2.65;2.45;;;;;;;33.45;35.22;99150.91;5053095;28;20255;-69
2022/08/11 12:34:57;;;;;;;2.50;2.40;;;;;;;33.69;36.73;99150.44;5050672;28;20637;-70
2022/08/11 12:37:29;;;;;;;2.55;2.45;;;;;;;33.82;36.02;99148.81;5049317;28;20228;-70
2022/08/11 12:45:33;;;;;;;2.53;2.42;;;;;;;33.43;36.14;99138.84;5053127;28;20230;-69
2022/08/11 12:53:51;;;;;;;2.20;1.90;;;;;;;33.05;33.44;99149.88;5047716;28;20335;-70
2022/08/11 13:04:58;;;;;;;2.58;2.47;;;;;;;33.07;35.90;99147.84;5051952;28;20303;-69
2022/08/11 13:07:25;;;;;;;4.85;2.70;;;;;;;32.85;36.29;99145.47;5056577;28;20752;-67
2022/08/11 13:09:53;;;;;;;2.85;2.70;;;;;;;32.89;37.25;99149.38;5071557;28;20206;-69
2022/08/11 13:15:10;;;;;;;2.08;1.98;;;;;;;32.96;36.58;99137.75;5071577;28;20215;-69
2022/08/11 13:17:37;;;;;;;2.28;2.17;;;;;;;33.05;37.84;99131.28;5069343;28;20635;-68
2022/08/11 13:20:08;;;;;;;2.65;2.50;;;;;;;33.06;37.70;99122.28;5067835;28;20205;-69
2022/08/11 13:22:36;;;;;;;2.45;2.35;;;;;;;32.87;35.45;99127.50;5071258;28;20203;-68
2022/08/11 13:25:05;;;;;;;5.55;2.03;;;;;;;33.17;35.03;99129.75;5070875;28;20204;-68
2022/08/11 13:27:33;;;;;;;2.60;2.50;;;;;;;33.72;38.19;99135.91;5071006;28;20196;-69
2022/08/11 13:32:45;;;;;;;2.60;2.50;;;;;;;33.57;36.03;99138.69;5071171;28;20780;-70
2022/08/11 13:35:15;;;;;;;2.65;2.55;;;;;;;33.54;35.71;99127.66;5067593;28;20618;-70
2022/08/11 13:37:45;;;;;;;3.08;2.97;;;;;;;33.42;37.02;99126.56;5068258;28;20211;-69
2022/08/11 13:40:13;;;;;;;3.00;2.70;;;;;;;33.38;35.70;99120.03;5070238;28;20207;-69
2022/08/11 13:42:41;;;;;;;3.00;2.90;;;;;;;33.42;36.92;99121.25;5066664;28;20215;-70
2022/08/11 13:45:10;;;;;;;3.78;2.85;;;;;;;33.22;37.17;99123.81;5069054;28;20231;-71
2022/08/11 13:47:38;;;;;;;2.90;2.80;;;;;;;32.86;38.41;99121.34;5069751;28;20218;-70
2022/08/11 13:50:06;;;;;;;3.08;2.88;;;;;;;32.46;39.51;99120.25;5069325;28;20622;-69
2022/08/11 13:52:38;;;;;;;3.50;3.30;;;;;;;32.19;40.00;99129.81;5068487;28;20310;-70
2022/08/11 13:55:06;;;;;;;3.42;3.22;;;;;;;32.10;39.98;99128.31;5064184;28;20683;-69
2022/08/11 13:57:35;;;;;;;2.67;2.58;;;;;;;32.44;39.51;99135.53;5061906;28;20204;-70
2022/08/11 14:00:09;;;;;;;2.85;2.72;;;;;;;32.49;38.68;99125.16;5066345;28;20208;-69
2022/08/11 14:02:39;;;;;;;3.05;2.95;;;;;;;32.19;39.04;99123.69;5068078;28;20196;-70
2022/08/11 14:05:11;;;;;;;2.83;2.72;;;;;;;32.13;39.20;99119.97;5068977;28;20196;-69
2022/08/11 14:07:46;;;;;;;3.97;2.97;;;;;;;32.20;39.37;99123.50;5069282;28;20232;-69
2022/08/11 14:10:16;;;;;;;4.30;3.45;;;;;;;32.33;40.06;99090.97;5068680;28;20667;-69
2022/08/11 14:15:36;;;;;;;2.90;2.80;;;;;;;32.39;40.61;99108.75;5067160;28;20284;-71
2022/08/11 14:18:06;;;;;;;2.90;2.70;;;;;;;32.28;39.90;99119.09;5067351;28;20694;-71
2022/08/11 14:23:22;;;;;;;2.88;2.70;;;;;;;32.77;39.66;99111.91;5069840;28;20287;-73
2022/08/11 14:28:34;;;;;;;3.40;3.10;;;;;;;32.50;40.10;99110.06;5068169;28;20218;-70
2022/08/11 14:31:04;;;;;;;3.28;3.00;;;;;;;32.55;39.44;99119.09;5069941;28;20265;-71
2022/08/11 14:33:33;;;;;;;3.00;2.80;;;;;;;32.61;38.60;99117.50;5070899;28;20220;-70
2022/08/11 14:36:00;;;;;;;2.70;2.50;;;;;;;32.55;38.19;99120.91;5070917;28;20283;-71
2022/08/11 14:38:28;;;;;;;4.10;3.00;;;;;;;32.23;38.02;99128.44;5070705;28;20207;-70
2022/08/11 14:49:13;;;;;;;2.67;2.58;;;;;;;32.58;36.79;99131.19;5066571;28;20291;-72
2022/08/11 14:51:41;;;;;;;2.60;2.50;;;;;;;32.56;37.51;99130.53;5070310;28;20202;-72
2022/08/11 14:56:51;;;;;;;2.20;2.10;;;;;;;32.04;37.00;99126.44;5033237;28;20200;-70
2022/08/11 14:59:18;;;;;;;2.30;2.20;;;;;;;32.08;37.43;99124.22;5069995;28;20568;-73
2022/08/11 15:04:29;;;;;;;2.55;2.45;;;;;;;32.29;35.91;99118.06;5068565;28;20698;-69
2022/08/11 15:06:57;;;;;;;2.30;2.10;;;;;;;32.13;35.79;99129.75;5067603;28;20204;-71
2022/08/11 15:09:25;;;;;;;1.95;1.92;;;;;;;31.92;36.06;99124.44;5063970;28;20659;-70
2022/08/11 15:12:15;;;;;;;2.47;1.80;;;;;;;31.65;36.42;99118.03;5066821;28;20207;-69
2022/08/11 15:17:28;;;;;;;3.97;2.13;;;;;;;31.32;37.47;99120.28;5065034;28;20223;-71
2022/08/11 15:25:33;;;;;;;1.30;1.30;;;;;;;30.98;38.92;99117.38;5071383;28;20203;-70
2022/08/11 15:39:12;;;;;;;3.85;2.42;;;;;;;30.41;42.82;99114.47;5073898;28;20214;-69
2022/08/11 15:47:25;;;;;;;1.83;1.73;;;;;;;30.05;43.54;99125.63;5073392;28;20567;-70
2022/08/11 15:49:55;;;;;;;1.50;1.50;;;;;;;29.79;44.67;99129.63;5073242;28;20200;-70
2022/08/11 15:52:29;;;;;;;2.10;1.85;;;;;;;29.43;45.47;99135.44;5073755;28;20227;-69
2022/08/11 15:55:01;;;;;;;4.40;2.17;;;;;;;29.15;46.85;99140.28;5073456;28;20203;-71
2022/08/11 16:05:49;;;;;;;2.90;1.97;;;;;;;29.12;48.82;99159.09;5072925;28;20207;-71
2022/08/11 16:08:21;;;;;;;2.53;2.43;;;;;;;28.91;49.68;99181.75;5072694;28;20227;-70
2022/08/11 16:10:50;;;;;;;4.60;2.60;;;;;;;28.78;49.80;99192.00;5069344;28;20200;-71
2022/08/11 16:16:17;;;;;;;1.87;1.77;;;;;;;29.12;48.94;99216.34;5067302;28;20265;-69
2022/08/11 16:18:50;;;;;;;2.17;2.07;;;;;;;29.30;53.93;99229.38;5070859;28;20234;-68
2022/08/11 16:21:23;;;;;;;3.13;2.83;;;;;;;29.23;56.58;99223.94;5070468;28;20255;-67
2022/08/11 16:23:52;;;;;;;5.27;3.00;;;;;;;28.91;57.96;99224.81;5071652;28;20196;-69
2022/08/11 16:26:22;;;;;;;3.50;3.30;;;;;;;28.64;59.91;99233.03;5070800;28;20275;-69
2022/08/11 16:28:52;;;;;;;7.30;3.57;;;;;;;28.41;62.79;99234.66;5071155;28;20200;-69
2022/08/11 16:31:21;;;;;;;4.10;3.23;;;;;;;27.76;68.27;99228.38;5070490;28;20341;-69
2022/08/11 16:33:49;;;;;;;4.83;2.97;;;;;;;26.98;73.67;99231.09;5071151;28;20599;-69
2022/08/11 16:39:03;;;;;;;3.83;3.53;;;;;;;26.38;80.95;99268.69;5067742;28;20718;-70
2022/08/11 16:47:07;;;;;;;5.87;5.57;;;;;;;25.57;90.75;99289.56;5071539;28;20277;-69
2022/08/11 16:49:36;;;;;;;5.57;5.27;;;;;;;25.33;93.64;99285.75;5072677;28;21351;-69
2022/08/11 16:52:04;;;;;;;5.13;4.80;;;;;;;25.35;95.18;99294.28;5071945;28;20211;-69
2022/08/11 16:54:33;;;;;;;5.07;4.67;;;;;;;25.45;93.95;99305.59;5071910;28;20200;-69
2022/08/11 16:59:12;;;;;;;4.07;3.87;;;;;;;25.48;93.35;99305.31;5071974;28;20215;-68
2022/08/11 16:59:52;;;;;;;4.97;4.67;;;;;;;25.51;94.81;99305.06;5069656;28;20663;-68
2022/08/11 17:13:35;;;;;;;6.27;5.67;;;;;;;25.42;100.00;99337.38;5069878;28;20218;-67
2022/08/11 17:16:08;;;;;;;6.37;5.80;;;;;;;25.24;100.00;99339.06;5070948;28;20211;-68
2022/08/11 17:18:41;;;;;;;5.80;5.40;;;;;;;24.97;100.00;99327.50;5071330;28;20200;-68
2022/08/11 17:21:12;;;;;;;5.97;5.57;;;;;;;24.70;100.00;99329.94;5067976;28;20200;-68